sensor_id;sensor_type;location;lat;lon;timestamp;temperature;humidity
6865;DHT22;3471;49.678;8.388;2022-10-16T00:01:11;17.50;99.90
6865;DHT22;3471;49.678;8.388;2022-10-16T00:03:39;17.40;99.90
6865;DHT22;3471;49.678;8.388;2022-10-16T00:06:05;17.40;99.90
6865;DHT22;3471;49.678;8.388;2022-10-16T00:08:31;17.30;99.90
6865;DHT22;3471;49.678;8.388;2022-10-16T00:11:02;17.30;99.90
6865;DHT22;3471;49.678;8.388;2022-10-16T00:13:29;17.20;99.90
6865;DHT22;3471;49.678;8.388;2022-10-16T00:15:56;17.20;99.90
6865;DHT22;3471;49.678;8.388;2022-10-16T00:18:22;17.20;99.90
6865;DHT22;3471;49.678;8.388;2022-10-16T00:20:48;17.10;99.90
6865;DHT22;3471;49.678;8.388;2022-10-16T00:23:14;17.10;99.90
6865;DHT22;3471;49.678;8.388;2022-10-16T00:25:39;17.20;99.90
6865;DHT22;3471;49.678;8.388;2022-10-16T00:28:05;17.10;99.90
6865;DHT22;3471;49.678;8.388;2022-10-16T00:30:30;17.10;99.90
6865;DHT22;3471;49.678;8.388;2022-10-16T00:32:56;17.10;99.90
6865;DHT22;3471;49.678;8.388;2022-10-16T00:35:21;17.20;99.90
6865;DHT22;3471;49.678;8.388;2022-10-16T00:37:47;17.20;99.90
6865;DHT22;3471;49.678;8.388;2022-10-16T00:40:12;17.20;99.90
6865;DHT22;3471;49.678;8.388;2022-10-16T00:42:38;17.30;99.90
6865;DHT22;3471;49.678;8.388;2022-10-16T00:45:04;17.20;99.90
6865;DHT22;3471;49.678;8.388;2022-10-16T00:47:40;17.30;99.90
6865;DHT22;3471;49.678;8.388;2022-10-16T00:50:31;17.20;99.90
6865;DHT22;3471;49.678;8.388;2022-10-16T00:52:58;17.30;99.90
6865;DHT22;3471;49.678;8.388;2022-10-16T00:55:26;17.30;99.90
6865;DHT22;3471;49.678;8.388;2022-10-16T00:57:53;17.40;99.90
6865;DHT22;3471;49.678;8.388;2022-10-16T01:00:22;17.40;99.90
6865;DHT22;3471;49.678;8.388;2022-10-16T01:02:53;17.40;99.90
6865;DHT22;3471;49.678;8.388;2022-10-16T01:05:22;17.50;99.90
6865;DHT22;3471;49.678;8.388;2022-10-16T01:08:16;17.50;99.90
6865;DHT22;3471;49.678;8.388;2022-10-16T01:10:51;17.50;99.90
6865;DHT22;3471;49.678;8.388;2022-10-16T01:13:24;17.40;99.90
6865;DHT22;3471;49.678;8.388;2022-10-16T01:21:05;17.40;99.90
6865;DHT22;3471;49.678;8.388;2022-10-16T01:26:10;17.30;99.90
6865;DHT22;3471;49.678;8.388;2022-10-16T01:31:11;17.30;99.90
6865;DHT22;3471;49.678;8.388;2022-10-16T01:33:45;17.30;99.90
6865;DHT22;3471;49.678;8.388;2022-10-16T01:36:15;17.30;99.90
6865;DHT22;3471;49.678;8.388;2022-10-16T01:38:44;17.30;99.90
6865;DHT22;3471;49.678;8.388;2022-10-16T01:41:28;17.30;99.90
6865;DHT22;3471;49.678;8.388;2022-10-16T01:44:11;17.30;99.90
6865;DHT22;3471;49.678;8.388;2022-10-16T01:46:41;17.30;99.90
6865;DHT22;3471;49.678;8.388;2022-10-16T01:49:09;17.30;99.90
6865;DHT22;3471;49.678;8.388;2022-10-16T01:51:37;17.40;99.90
6865;DHT22;3471;49.678;8.388;2022-10-16T01:54:05;17.40;99.90
6865;DHT22;3471;49.678;8.388;2022-10-16T01:56:33;17.40;99.90
6865;DHT22;3471;49.678;8.388;2022-10-16T01:59:15;17.40;99.90
6865;DHT22;3471;49.678;8.388;2022-10-16T02:01:45;17.50;99.90
6865;DHT22;3471;49.678;8.388;2022-10-16T02:04:54;17.50;99.90
6865;DHT22;3471;49.678;8.388;2022-10-16T02:07:23;17.50;99.90
6865;DHT22;3471;49.678;8.388;2022-10-16T02:09:49;17.60;99.90
6865;DHT22;3471;49.678;8.388;2022-10-16T02:12:25;17.60;99.90
6865;DHT22;3471;49.678;8.388;2022-10-16T02:14:51;17.60;99.90
6865;DHT22;3471;49.678;8.388;2022-10-16T02:17:18;17.60;99.90
6865;DHT22;3471;49.678;8.388;2022-10-16T02:19:45;17.60;99.90
6865;DHT22;3471;49.678;8.388;2022-10-16T02:22:28;17.60;99.90
6865;DHT22;3471;49.678;8.388;2022-10-16T02:25:15;17.60;99.90
6865;DHT22;3471;49.678;8.388;2022-10-16T02:28:03;17.60;99.90
6865;DHT22;3471;49.678;8.388;2022-10-16T02:30:39;17.60;99.90
6865;DHT22;3471;49.678;8.388;2022-10-16T02:33:09;17.60;99.90
6865;DHT22;3471;49.678;8.388;2022-10-16T02:35:36;17.60;99.90
6865;DHT22;3471;49.678;8.388;2022-10-16T02:38:03;17.60;99.90
6865;DHT22;3471;49.678;8.388;2022-10-16T02:40:30;17.60;99.90
6865;DHT22;3471;49.678;8.388;2022-10-16T02:42:56;17.70;99.90
6865;DHT22;3471;49.678;8.388;2022-10-16T02:45:22;17.60;99.90
6865;DHT22;3471;49.678;8.388;2022-10-16T02:47:48;17.60;99.90
6865;DHT22;3471;49.678;8.388;2022-10-16T02:50:14;17.60;99.90
6865;DHT22;3471;49.678;8.388;2022-10-16T02:52:40;17.70;99.90
6865;DHT22;3471;49.678;8.388;2022-10-16T02:55:05;17.70;99.90
6865;DHT22;3471;49.678;8.388;2022-10-16T02:57:31;17.80;99.90
6865;DHT22;3471;49.678;8.388;2022-10-16T02:59:57;17.80;99.90
6865;DHT22;3471;49.678;8.388;2022-10-16T03:02:23;17.80;99.90
6865;DHT22;3471;49.678;8.388;2022-10-16T03:04:48;17.80;99.90
6865;DHT22;3471;49.678;8.388;2022-10-16T03:07:14;17.80;99.90
6865;DHT22;3471;49.678;8.388;2022-10-16T03:09:39;17.80;99.90
6865;DHT22;3471;49.678;8.388;2022-10-16T03:12:05;17.80;99.90
6865;DHT22;3471;49.678;8.388;2022-10-16T03:14:32;17.80;99.90
6865;DHT22;3471;49.678;8.388;2022-10-16T03:16:57;17.90;99.90
6865;DHT22;3471;49.678;8.388;2022-10-16T03:19:23;17.90;99.90
6865;DHT22;3471;49.678;8.388;2022-10-16T03:21:48;17.80;99.90
6865;DHT22;3471;49.678;8.388;2022-10-16T03:24:14;17.80;99.90
6865;DHT22;3471;49.678;8.388;2022-10-16T03:26:40;17.80;99.90
6865;DHT22;3471;49.678;8.388;2022-10-16T03:29:05;17.90;99.90
6865;DHT22;3471;49.678;8.388;2022-10-16T03:31:31;17.80;99.90
6865;DHT22;3471;49.678;8.388;2022-10-16T03:33:57;17.80;99.90
6865;DHT22;3471;49.678;8.388;2022-10-16T03:36:22;17.80;99.90
6865;DHT22;3471;49.678;8.388;2022-10-16T03:38:48;17.80;99.90
6865;DHT22;3471;49.678;8.388;2022-10-16T03:41:13;17.80;99.90
6865;DHT22;3471;49.678;8.388;2022-10-16T03:43:39;17.80;99.90
6865;DHT22;3471;49.678;8.388;2022-10-16T03:46:05;17.80;99.90
6865;DHT22;3471;49.678;8.388;2022-10-16T03:48:30;17.80;99.90
6865;DHT22;3471;49.678;8.388;2022-10-16T03:50:57;17.80;99.90
6865;DHT22;3471;49.678;8.388;2022-10-16T03:53:23;17.70;99.90
6865;DHT22;3471;49.678;8.388;2022-10-16T03:55:48;17.70;99.90
6865;DHT22;3471;49.678;8.388;2022-10-16T03:58:14;17.70;99.90
6865;DHT22;3471;49.678;8.388;2022-10-16T04:00:43;17.70;99.90
6865;DHT22;3471;49.678;8.388;2022-10-16T04:03:10;17.70;99.90
6865;DHT22;3471;49.678;8.388;2022-10-16T04:05:36;17.80;99.90
6865;DHT22;3471;49.678;8.388;2022-10-16T04:08:02;17.70;99.90
6865;DHT22;3471;49.678;8.388;2022-10-16T04:10:27;17.70;99.90
6865;DHT22;3471;49.678;8.388;2022-10-16T04:12:53;17.70;99.90
6865;DHT22;3471;49.678;8.388;2022-10-16T04:15:21;17.70;99.90
6865;DHT22;3471;49.678;8.388;2022-10-16T04:17:47;17.70;99.90
6865;DHT22;3471;49.678;8.388;2022-10-16T04:20:13;17.70;99.90
6865;DHT22;3471;49.678;8.388;2022-10-16T04:22:38;17.70;99.90
6865;DHT22;3471;49.678;8.388;2022-10-16T04:25:04;17.70;99.90
6865;DHT22;3471;49.678;8.388;2022-10-16T04:27:30;17.60;99.90
6865;DHT22;3471;49.678;8.388;2022-10-16T04:29:57;17.60;99.90
6865;DHT22;3471;49.678;8.388;2022-10-16T04:32:23;17.60;99.90
6865;DHT22;3471;49.678;8.388;2022-10-16T04:34:48;17.60;99.90
6865;DHT22;3471;49.678;8.388;2022-10-16T04:37:14;17.60;99.90
6865;DHT22;3471;49.678;8.388;2022-10-16T04:39:39;17.50;99.90
6865;DHT22;3471;49.678;8.388;2022-10-16T04:42:05;17.50;99.90
6865;DHT22;3471;49.678;8.388;2022-10-16T04:44:31;17.50;99.90
6865;DHT22;3471;49.678;8.388;2022-10-16T04:46:56;17.50;99.90
6865;DHT22;3471;49.678;8.388;2022-10-16T04:49:22;17.50;99.90
6865;DHT22;3471;49.678;8.388;2022-10-16T04:51:47;17.40;99.90
6865;DHT22;3471;49.678;8.388;2022-10-16T04:54:13;17.40;99.90
6865;DHT22;3471;49.678;8.388;2022-10-16T04:56:38;17.40;99.90
6865;DHT22;3471;49.678;8.388;2022-10-16T04:59:14;17.30;99.90
6865;DHT22;3471;49.678;8.388;2022-10-16T05:01:40;17.30;99.90
6865;DHT22;3471;49.678;8.388;2022-10-16T05:04:06;17.20;99.90
6865;DHT22;3471;49.678;8.388;2022-10-16T05:06:32;17.20;99.90
6865;DHT22;3471;49.678;8.388;2022-10-16T05:08:58;17.10;99.90
6865;DHT22;3471;49.678;8.388;2022-10-16T05:11:23;17.20;99.90
6865;DHT22;3471;49.678;8.388;2022-10-16T05:13:49;17.20;99.90
6865;DHT22;3471;49.678;8.388;2022-10-16T05:16:15;17.20;99.90
6865;DHT22;3471;49.678;8.388;2022-10-16T05:18:41;17.20;99.90
6865;DHT22;3471;49.678;8.388;2022-10-16T05:21:06;17.30;99.90
6865;DHT22;3471;49.678;8.388;2022-10-16T05:23:32;17.30;99.90
6865;DHT22;3471;49.678;8.388;2022-10-16T05:25:59;17.40;99.90
6865;DHT22;3471;49.678;8.388;2022-10-16T05:28:29;17.40;99.90
6865;DHT22;3471;49.678;8.388;2022-10-16T05:30:56;17.40;99.90
6865;DHT22;3471;49.678;8.388;2022-10-16T05:33:23;17.40;99.90
6865;DHT22;3471;49.678;8.388;2022-10-16T05:35:49;17.40;99.90
6865;DHT22;3471;49.678;8.388;2022-10-16T05:38:18;17.30;99.90
6865;DHT22;3471;49.678;8.388;2022-10-16T05:40:50;17.40;99.90
6865;DHT22;3471;49.678;8.388;2022-10-16T05:43:16;17.40;99.90
6865;DHT22;3471;49.678;8.388;2022-10-16T05:45:42;17.30;99.90
6865;DHT22;3471;49.678;8.388;2022-10-16T05:48:08;17.30;99.90
6865;DHT22;3471;49.678;8.388;2022-10-16T05:50:33;17.30;99.90
6865;DHT22;3471;49.678;8.388;2022-10-16T05:52:59;17.30;99.90
6865;DHT22;3471;49.678;8.388;2022-10-16T05:55:24;17.30;99.90
6865;DHT22;3471;49.678;8.388;2022-10-16T05:57:50;17.40;99.90
6865;DHT22;3471;49.678;8.388;2022-10-16T06:00:15;17.40;99.90
6865;DHT22;3471;49.678;8.388;2022-10-16T06:02:41;17.40;99.90
6865;DHT22;3471;49.678;8.388;2022-10-16T06:05:07;17.40;99.90
6865;DHT22;3471;49.678;8.388;2022-10-16T06:07:35;17.50;99.90
6865;DHT22;3471;49.678;8.388;2022-10-16T06:10:01;17.50;99.90
6865;DHT22;3471;49.678;8.388;2022-10-16T06:12:28;17.50;99.90
6865;DHT22;3471;49.678;8.388;2022-10-16T06:14:53;17.40;99.90
6865;DHT22;3471;49.678;8.388;2022-10-16T06:17:19;17.40;99.90
6865;DHT22;3471;49.678;8.388;2022-10-16T06:19:44;17.40;99.90
6865;DHT22;3471;49.678;8.388;2022-10-16T06:22:10;17.40;99.90
6865;DHT22;3471;49.678;8.388;2022-10-16T06:24:35;17.40;99.90
6865;DHT22;3471;49.678;8.388;2022-10-16T06:27:02;17.40;99.90
6865;DHT22;3471;49.678;8.388;2022-10-16T06:29:28;17.30;99.90
6865;DHT22;3471;49.678;8.388;2022-10-16T06:31:53;17.30;99.90
6865;DHT22;3471;49.678;8.388;2022-10-16T06:34:19;17.40;99.90
6865;DHT22;3471;49.678;8.388;2022-10-16T06:36:44;17.30;99.90
6865;DHT22;3471;49.678;8.388;2022-10-16T06:39:10;17.40;99.90
6865;DHT22;3471;49.678;8.388;2022-10-16T06:41:36;17.30;99.90
6865;DHT22;3471;49.678;8.388;2022-10-16T06:44:05;17.30;99.90
6865;DHT22;3471;49.678;8.388;2022-10-16T06:46:30;17.30;99.90
6865;DHT22;3471;49.678;8.388;2022-10-16T06:48:56;17.40;99.90
6865;DHT22;3471;49.678;8.388;2022-10-16T06:51:22;17.40;99.90
6865;DHT22;3471;49.678;8.388;2022-10-16T06:53:53;17.40;99.90
6865;DHT22;3471;49.678;8.388;2022-10-16T06:56:27;17.50;99.90
6865;DHT22;3471;49.678;8.388;2022-10-16T06:58:53;17.50;99.90
6865;DHT22;3471;49.678;8.388;2022-10-16T07:01:20;17.50;99.90
6865;DHT22;3471;49.678;8.388;2022-10-16T07:03:47;17.60;99.90
6865;DHT22;3471;49.678;8.388;2022-10-16T07:06:15;17.60;99.90
6865;DHT22;3471;49.678;8.388;2022-10-16T07:08:43;17.60;99.90
6865;DHT22;3471;49.678;8.388;2022-10-16T07:11:15;17.60;99.90
6865;DHT22;3471;49.678;8.388;2022-10-16T07:13:42;17.70;99.90
6865;DHT22;3471;49.678;8.388;2022-10-16T07:16:16;17.80;99.90
6865;DHT22;3471;49.678;8.388;2022-10-16T07:18:42;17.80;99.90
6865;DHT22;3471;49.678;8.388;2022-10-16T07:21:13;17.80;99.90
6865;DHT22;3471;49.678;8.388;2022-10-16T07:23:39;17.80;99.90
6865;DHT22;3471;49.678;8.388;2022-10-16T07:26:06;17.80;99.90
6865;DHT22;3471;49.678;8.388;2022-10-16T07:28:32;17.80;99.90
6865;DHT22;3471;49.678;8.388;2022-10-16T07:31:02;17.90;99.90
6865;DHT22;3471;49.678;8.388;2022-10-16T07:33:29;17.90;99.90
6865;DHT22;3471;49.678;8.388;2022-10-16T07:35:55;17.90;99.90
6865;DHT22;3471;49.678;8.388;2022-10-16T07:38:21;18.00;99.90
6865;DHT22;3471;49.678;8.388;2022-10-16T07:40:47;18.00;99.90
6865;DHT22;3471;49.678;8.388;2022-10-16T07:43:14;18.10;99.90
6865;DHT22;3471;49.678;8.388;2022-10-16T07:45:50;18.10;99.90
6865;DHT22;3471;49.678;8.388;2022-10-16T07:48:16;18.20;99.90
6865;DHT22;3471;49.678;8.388;2022-10-16T07:50:43;18.20;99.90
6865;DHT22;3471;49.678;8.388;2022-10-16T07:53:09;18.20;99.90
6865;DHT22;3471;49.678;8.388;2022-10-16T07:55:34;18.20;99.90
6865;DHT22;3471;49.678;8.388;2022-10-16T07:58:00;18.30;99.90
6865;DHT22;3471;49.678;8.388;2022-10-16T08:00:26;18.30;99.90
6865;DHT22;3471;49.678;8.388;2022-10-16T08:02:51;18.30;99.90
6865;DHT22;3471;49.678;8.388;2022-10-16T08:05:17;18.30;99.90
6865;DHT22;3471;49.678;8.388;2022-10-16T08:07:43;18.30;99.90
6865;DHT22;3471;49.678;8.388;2022-10-16T08:10:17;18.30;99.90
6865;DHT22;3471;49.678;8.388;2022-10-16T08:12:43;18.40;99.90
6865;DHT22;3471;49.678;8.388;2022-10-16T08:15:09;18.30;99.90
6865;DHT22;3471;49.678;8.388;2022-10-16T08:17:35;18.30;99.90
6865;DHT22;3471;49.678;8.388;2022-10-16T08:20:01;18.30;99.90
6865;DHT22;3471;49.678;8.388;2022-10-16T08:22:27;18.30;99.90
6865;DHT22;3471;49.678;8.388;2022-10-16T08:24:53;18.30;99.90
6865;DHT22;3471;49.678;8.388;2022-10-16T08:27:18;18.30;99.90
6865;DHT22;3471;49.678;8.388;2022-10-16T08:29:44;18.20;99.90
6865;DHT22;3471;49.678;8.388;2022-10-16T08:32:09;18.20;99.90
6865;DHT22;3471;49.678;8.388;2022-10-16T08:34:35;18.10;99.90
6865;DHT22;3471;49.678;8.388;2022-10-16T08:37:00;18.00;99.90
6865;DHT22;3471;49.678;8.388;2022-10-16T08:39:26;17.90;99.90
6865;DHT22;3471;49.678;8.388;2022-10-16T08:42:11;17.80;99.90
6865;DHT22;3471;49.678;8.388;2022-10-16T08:50:02;17.70;99.90
6865;DHT22;3471;49.678;8.388;2022-10-16T08:52:34;17.70;99.90
6865;DHT22;3471;49.678;8.388;2022-10-16T08:55:01;17.80;99.90
6865;DHT22;3471;49.678;8.388;2022-10-16T08:57:27;17.80;99.90
6865;DHT22;3471;49.678;8.388;2022-10-16T08:59:53;17.90;99.90
6865;DHT22;3471;49.678;8.388;2022-10-16T09:02:36;18.00;99.90
6865;DHT22;3471;49.678;8.388;2022-10-16T09:08:07;18.30;99.90
6865;DHT22;3471;49.678;8.388;2022-10-16T09:10:50;18.40;99.90
6865;DHT22;3471;49.678;8.388;2022-10-16T09:13:26;18.60;99.90
6865;DHT22;3471;49.678;8.388;2022-10-16T09:16:12;18.70;99.90
6865;DHT22;3471;49.678;8.388;2022-10-16T09:18:48;18.80;99.90
6865;DHT22;3471;49.678;8.388;2022-10-16T09:21:35;18.80;99.90
6865;DHT22;3471;49.678;8.388;2022-10-16T09:24:17;18.80;99.90
6865;DHT22;3471;49.678;8.388;2022-10-16T09:26:44;18.80;99.90
6865;DHT22;3471;49.678;8.388;2022-10-16T09:29:15;19.00;99.90
6865;DHT22;3471;49.678;8.388;2022-10-16T09:31:41;19.10;99.90
6865;DHT22;3471;49.678;8.388;2022-10-16T09:36:44;19.20;99.90
6865;DHT22;3471;49.678;8.388;2022-10-16T09:39:11;19.30;99.90
6865;DHT22;3471;49.678;8.388;2022-10-16T09:41:40;19.40;99.90
6865;DHT22;3471;49.678;8.388;2022-10-16T09:44:22;19.50;99.90
6865;DHT22;3471;49.678;8.388;2022-10-16T09:46:48;19.60;99.90
6865;DHT22;3471;49.678;8.388;2022-10-16T09:49:23;19.80;99.90
6865;DHT22;3471;49.678;8.388;2022-10-16T09:51:50;20.20;99.90
6865;DHT22;3471;49.678;8.388;2022-10-16T09:54:20;20.50;99.90
6865;DHT22;3471;49.678;8.388;2022-10-16T09:56:46;20.80;99.90
6865;DHT22;3471;49.678;8.388;2022-10-16T09:59:19;21.10;99.90
6865;DHT22;3471;49.678;8.388;2022-10-16T10:01:50;21.40;99.90
6865;DHT22;3471;49.678;8.388;2022-10-16T10:04:18;21.80;99.90
6865;DHT22;3471;49.678;8.388;2022-10-16T10:06:46;22.20;99.90
6865;DHT22;3471;49.678;8.388;2022-10-16T10:11:50;23.00;99.90
6865;DHT22;3471;49.678;8.388;2022-10-16T10:33:19;24.70;99.90
6865;DHT22;3471;49.678;8.388;2022-10-16T10:38:40;25.30;99.90
6865;DHT22;3471;49.678;8.388;2022-10-16T10:47:15;25.90;99.90
6865;DHT22;3471;49.678;8.388;2022-10-16T11:00:50;27.20;99.90
6865;DHT22;3471;49.678;8.388;2022-10-16T11:03:26;27.50;99.90
6865;DHT22;3471;49.678;8.388;2022-10-16T11:06:10;27.70;99.90
6865;DHT22;3471;49.678;8.388;2022-10-16T11:08:52;27.70;99.90
6865;DHT22;3471;49.678;8.388;2022-10-16T11:11:24;27.40;99.90
6865;DHT22;3471;49.678;8.388;2022-10-16T11:16:26;26.90;99.90
6865;DHT22;3471;49.678;8.388;2022-10-16T11:24:42;26.50;99.90
6865;DHT22;3471;49.678;8.388;2022-10-16T11:27:15;26.80;99.90
6865;DHT22;3471;49.678;8.388;2022-10-16T11:29:52;27.00;99.90
6865;DHT22;3471;49.678;8.388;2022-10-16T11:32:24;26.80;99.90
6865;DHT22;3471;49.678;8.388;2022-10-16T11:34:57;26.70;99.90
6865;DHT22;3471;49.678;8.388;2022-10-16T11:37:33;26.50;99.90
6865;DHT22;3471;49.678;8.388;2022-10-16T11:40:19;26.50;99.90
6865;DHT22;3471;49.678;8.388;2022-10-16T11:42:58;26.40;99.90
6865;DHT22;3471;49.678;8.388;2022-10-16T11:48:38;26.20;99.90
6865;DHT22;3471;49.678;8.388;2022-10-16T11:51:32;26.10;99.90
6865;DHT22;3471;49.678;8.388;2022-10-16T11:54:26;26.10;99.90
6865;DHT22;3471;49.678;8.388;2022-10-16T11:56:59;26.10;99.90
6865;DHT22;3471;49.678;8.388;2022-10-16T11:59:37;26.00;99.90
6865;DHT22;3471;49.678;8.388;2022-10-16T12:05:33;25.80;99.90
6865;DHT22;3471;49.678;8.388;2022-10-16T12:08:06;25.70;99.90
6865;DHT22;3471;49.678;8.388;2022-10-16T12:10:33;25.80;99.90
6865;DHT22;3471;49.678;8.388;2022-10-16T12:13:04;25.70;99.90
6865;DHT22;3471;49.678;8.388;2022-10-16T12:15:32;25.70;99.90
6865;DHT22;3471;49.678;8.388;2022-10-16T12:17:58;25.60;99.90
6865;DHT22;3471;49.678;8.388;2022-10-16T12:20:32;25.50;99.90
6865;DHT22;3471;49.678;8.388;2022-10-16T12:23:01;25.30;99.90
6865;DHT22;3471;49.678;8.388;2022-10-16T12:25:36;25.30;99.90
6865;DHT22;3471;49.678;8.388;2022-10-16T12:30:42;25.30;99.90
6865;DHT22;3471;49.678;8.388;2022-10-16T12:33:35;25.40;99.90
6865;DHT22;3471;49.678;8.388;2022-10-16T12:36:15;25.80;99.90
6865;DHT22;3471;49.678;8.388;2022-10-16T12:38:48;26.20;99.90
6865;DHT22;3471;49.678;8.388;2022-10-16T12:41:31;26.60;99.90
6865;DHT22;3471;49.678;8.388;2022-10-16T12:43:57;26.80;99.90
6865;DHT22;3471;49.678;8.388;2022-10-16T12:46:43;26.80;99.90
6865;DHT22;3471;49.678;8.388;2022-10-16T12:51:38;26.40;99.90
6865;DHT22;3471;49.678;8.388;2022-10-16T13:05:26;28.90;99.90
6865;DHT22;3471;49.678;8.388;2022-10-16T13:11:02;28.70;99.90
6865;DHT22;3471;49.678;8.388;2022-10-16T13:17:01;27.70;99.90
6865;DHT22;3471;49.678;8.388;2022-10-16T13:19:36;27.00;99.90
6865;DHT22;3471;49.678;8.388;2022-10-16T13:22:16;26.50;99.90
6865;DHT22;3471;49.678;8.388;2022-10-16T13:24:52;26.00;99.90
6865;DHT22;3471;49.678;8.388;2022-10-16T13:27:47;25.50;99.90
6865;DHT22;3471;49.678;8.388;2022-10-16T13:30:21;25.10;99.90
6865;DHT22;3471;49.678;8.388;2022-10-16T13:32:50;24.70;99.90
6865;DHT22;3471;49.678;8.388;2022-10-16T13:35:21;24.50;99.90
6865;DHT22;3471;49.678;8.388;2022-10-16T13:37:47;24.30;99.90
6865;DHT22;3471;49.678;8.388;2022-10-16T13:40:20;24.10;99.90
6865;DHT22;3471;49.678;8.388;2022-10-16T13:42:45;23.90;99.90
6865;DHT22;3471;49.678;8.388;2022-10-16T13:45:22;23.60;99.90
6865;DHT22;3471;49.678;8.388;2022-10-16T13:47:48;23.50;99.90
6865;DHT22;3471;49.678;8.388;2022-10-16T13:50:17;23.40;99.90
6865;DHT22;3471;49.678;8.388;2022-10-16T13:52:44;23.20;99.90
6865;DHT22;3471;49.678;8.388;2022-10-16T13:55:17;23.10;99.90
6865;DHT22;3471;49.678;8.388;2022-10-16T13:57:43;23.10;99.90
6865;DHT22;3471;49.678;8.388;2022-10-16T14:02:44;22.90;99.90
6865;DHT22;3471;49.678;8.388;2022-10-16T14:05:10;22.80;99.90
6865;DHT22;3471;49.678;8.388;2022-10-16T14:07:36;22.60;99.90
6865;DHT22;3471;49.678;8.388;2022-10-16T14:10:22;22.60;99.90
6865;DHT22;3471;49.678;8.388;2022-10-16T14:13:02;22.50;99.90
6865;DHT22;3471;49.678;8.388;2022-10-16T14:15:30;22.50;99.90
6865;DHT22;3471;49.678;8.388;2022-10-16T14:17:58;22.50;99.90
6865;DHT22;3471;49.678;8.388;2022-10-16T14:20:29;22.50;99.90
6865;DHT22;3471;49.678;8.388;2022-10-16T14:25:44;22.40;99.90
6865;DHT22;3471;49.678;8.388;2022-10-16T14:30:55;22.40;99.90
6865;DHT22;3471;49.678;8.388;2022-10-16T14:36:14;22.40;99.90
6865;DHT22;3471;49.678;8.388;2022-10-16T14:39:03;22.40;99.90
6865;DHT22;3471;49.678;8.388;2022-10-16T14:41:30;22.30;99.90
6865;DHT22;3471;49.678;8.388;2022-10-16T14:44:02;22.30;99.90
6865;DHT22;3471;49.678;8.388;2022-10-16T14:46:35;22.30;99.90
6865;DHT22;3471;49.678;8.388;2022-10-16T14:51:40;22.30;99.90
6865;DHT22;3471;49.678;8.388;2022-10-16T14:54:08;22.30;99.90
6865;DHT22;3471;49.678;8.388;2022-10-16T14:56:48;22.40;99.90
6865;DHT22;3471;49.678;8.388;2022-10-16T14:59:45;22.40;99.90
6865;DHT22;3471;49.678;8.388;2022-10-16T15:02:30;22.40;99.90
6865;DHT22;3471;49.678;8.388;2022-10-16T15:04:56;22.40;99.90
6865;DHT22;3471;49.678;8.388;2022-10-16T15:07:23;22.50;99.90
6865;DHT22;3471;49.678;8.388;2022-10-16T15:09:48;22.50;99.90
6865;DHT22;3471;49.678;8.388;2022-10-16T15:12:14;22.50;99.90
6865;DHT22;3471;49.678;8.388;2022-10-16T15:14:40;22.50;99.90
6865;DHT22;3471;49.678;8.388;2022-10-16T15:17:07;22.50;99.90
6865;DHT22;3471;49.678;8.388;2022-10-16T15:19:33;22.60;99.90
6865;DHT22;3471;49.678;8.388;2022-10-16T15:21:59;22.60;99.90
6865;DHT22;3471;49.678;8.388;2022-10-16T15:24:25;22.60;99.90
6865;DHT22;3471;49.678;8.388;2022-10-16T15:26:50;22.70;99.90
6865;DHT22;3471;49.678;8.388;2022-10-16T15:29:16;22.70;99.90
6865;DHT22;3471;49.678;8.388;2022-10-16T15:31:41;22.80;99.90
6865;DHT22;3471;49.678;8.388;2022-10-16T15:34:12;22.80;99.90
6865;DHT22;3471;49.678;8.388;2022-10-16T15:36:39;22.80;99.90
6865;DHT22;3471;49.678;8.388;2022-10-16T15:39:15;22.90;99.90
6865;DHT22;3471;49.678;8.388;2022-10-16T15:41:41;22.80;99.90
6865;DHT22;3471;49.678;8.388;2022-10-16T15:44:07;22.80;99.90
6865;DHT22;3471;49.678;8.388;2022-10-16T15:46:33;22.80;99.90
6865;DHT22;3471;49.678;8.388;2022-10-16T15:49:00;22.80;99.90
6865;DHT22;3471;49.678;8.388;2022-10-16T15:51:27;22.70;99.90
6865;DHT22;3471;49.678;8.388;2022-10-16T15:53:58;22.60;99.90
6865;DHT22;3471;49.678;8.388;2022-10-16T15:56:24;22.60;99.90
6865;DHT22;3471;49.678;8.388;2022-10-16T15:58:51;22.50;99.90
6865;DHT22;3471;49.678;8.388;2022-10-16T16:01:17;22.40;99.90
6865;DHT22;3471;49.678;8.388;2022-10-16T16:03:43;22.30;99.90
6865;DHT22;3471;49.678;8.388;2022-10-16T16:06:11;22.20;99.90
6865;DHT22;3471;49.678;8.388;2022-10-16T16:08:37;22.10;99.90
6865;DHT22;3471;49.678;8.388;2022-10-16T16:11:12;22.00;99.90
6865;DHT22;3471;49.678;8.388;2022-10-16T16:13:38;21.90;99.90
6865;DHT22;3471;49.678;8.388;2022-10-16T16:16:12;21.80;99.90
6865;DHT22;3471;49.678;8.388;2022-10-16T16:18:38;21.70;99.90
6865;DHT22;3471;49.678;8.388;2022-10-16T16:21:05;21.70;99.90
6865;DHT22;3471;49.678;8.388;2022-10-16T16:23:31;21.70;99.90
6865;DHT22;3471;49.678;8.388;2022-10-16T16:26:15;21.60;99.90
6865;DHT22;3471;49.678;8.388;2022-10-16T16:28:42;21.60;99.90
6865;DHT22;3471;49.678;8.388;2022-10-16T16:31:10;21.50;99.90
6865;DHT22;3471;49.678;8.388;2022-10-16T16:33:36;21.50;99.90
6865;DHT22;3471;49.678;8.388;2022-10-16T16:36:03;21.40;99.90
6865;DHT22;3471;49.678;8.388;2022-10-16T16:38:32;21.40;99.90
6865;DHT22;3471;49.678;8.388;2022-10-16T16:40:58;21.30;99.90
6865;DHT22;3471;49.678;8.388;2022-10-16T16:43:25;21.30;99.90
6865;DHT22;3471;49.678;8.388;2022-10-16T16:45:51;21.20;99.90
6865;DHT22;3471;49.678;8.388;2022-10-16T16:48:17;21.20;99.90
6865;DHT22;3471;49.678;8.388;2022-10-16T16:50:42;21.10;99.90
6865;DHT22;3471;49.678;8.388;2022-10-16T16:53:08;21.10;99.90
6865;DHT22;3471;49.678;8.388;2022-10-16T16:55:33;21.00;99.90
6865;DHT22;3471;49.678;8.388;2022-10-16T16:57:59;21.00;99.90
6865;DHT22;3471;49.678;8.388;2022-10-16T17:00:25;20.90;99.90
6865;DHT22;3471;49.678;8.388;2022-10-16T17:02:51;20.80;99.90
6865;DHT22;3471;49.678;8.388;2022-10-16T17:05:17;20.70;99.90
6865;DHT22;3471;49.678;8.388;2022-10-16T17:07:43;20.60;99.90
6865;DHT22;3471;49.678;8.388;2022-10-16T17:10:09;20.50;99.90
6865;DHT22;3471;49.678;8.388;2022-10-16T17:12:35;20.50;99.90
6865;DHT22;3471;49.678;8.388;2022-10-16T17:15:01;20.30;99.90
6865;DHT22;3471;49.678;8.388;2022-10-16T17:17:27;20.20;99.90
6865;DHT22;3471;49.678;8.388;2022-10-16T17:19:52;20.20;99.90
6865;DHT22;3471;49.678;8.388;2022-10-16T17:22:19;20.10;99.90
6865;DHT22;3471;49.678;8.388;2022-10-16T17:24:48;20.00;99.90
6865;DHT22;3471;49.678;8.388;2022-10-16T17:27:15;20.00;99.90
6865;DHT22;3471;49.678;8.388;2022-10-16T17:29:41;20.00;99.90
6865;DHT22;3471;49.678;8.388;2022-10-16T17:32:06;19.90;99.90
6865;DHT22;3471;49.678;8.388;2022-10-16T17:34:32;19.90;99.90
6865;DHT22;3471;49.678;8.388;2022-10-16T17:36:57;19.90;99.90
6865;DHT22;3471;49.678;8.388;2022-10-16T17:39:23;19.80;99.90
6865;DHT22;3471;49.678;8.388;2022-10-16T17:41:49;19.80;99.90
6865;DHT22;3471;49.678;8.388;2022-10-16T17:44:15;19.70;99.90
6865;DHT22;3471;49.678;8.388;2022-10-16T17:46:48;19.70;99.90
6865;DHT22;3471;49.678;8.388;2022-10-16T17:49:15;19.70;99.90
6865;DHT22;3471;49.678;8.388;2022-10-16T17:51:41;19.60;99.90
6865;DHT22;3471;49.678;8.388;2022-10-16T17:54:06;19.60;99.90
6865;DHT22;3471;49.678;8.388;2022-10-16T17:56:32;19.60;99.90
6865;DHT22;3471;49.678;8.388;2022-10-16T17:58:59;19.50;99.90
6865;DHT22;3471;49.678;8.388;2022-10-16T18:01:31;19.50;99.90
6865;DHT22;3471;49.678;8.388;2022-10-16T18:04:00;19.40;99.90
6865;DHT22;3471;49.678;8.388;2022-10-16T18:06:27;19.30;99.90
6865;DHT22;3471;49.678;8.388;2022-10-16T18:08:55;19.30;99.90